Terminal Aerodrome Forecast
Issued by NWS Quad Cities IA IL

Home | Current Version | Previous Version | Text Only | Print | Product List | Glossary On
Versions: 1 2 3 4 5 6 7 8 9 10 11 12 13
589
FTUS43 KDVN 171720
TAFMLI
TAF
KMLI 171720Z 1718/1818 22012KT P6SM SKC
     FM180000 22007KT P6SM SKC
     FM181000 26004KT 6SM BR SKC
     FM181500 28004KT 6SM BR SKC=

USA.gov is the U.S. government's official web portal to all federal, state and local government web resources and services.